Troviken — C6ZT9 — position and weather

sailwx.info

Track history (hours):
 
Tides and Currents Weather Stations Pressure Air Temp Water Temp Dewpoint Dewpoint Depression Visibility Wind Speed Wind Dir Waves Ship Positions

Troviken

Last reported at 2015-May-21 12:30 UTC. Time now 2015-May-22 09:59 UTC.
Position N 39°50' W 010°25'.

Length 250 m; draft 13.8 m.

Type: Ship (hazmat cat A). MMSI: 311066200.

Date/timePositionNaut miles runAvg speedWind from/ knotsBaromVisibWave heightAir tempDewpointWater temp
2015-May-21 12:30N 39°50' W 010°25'28 9.4
2015-May-21 09:33N 39°22' W 010°25'9 9.4
2015-May-21 08:33N 39°13' W 010°25'9 9.1
2015-May-21 07:33N 39°03' W 010°25'12 8.7
2015-May-21 06:11N 38°52' W 010°25'8 8.7
2015-May-21 05:16N 38°44' W 010°25'6 8.6
2015-May-21 04:33N 38°37' W 010°25'65 8.0
2015-May-20 20:27N 37°33' W 010°14'7 7.5
2015-May-20 19:31N 37°26' W 010°11'10 8.0
2015-May-20 18:12N 37°16' W 010°07'9 8.4
2015-May-20 17:07N 37°08' W 010°04'8 8.5
2015-May-20 16:14N 37°01' W 010°01'23 8.5
2015-May-20 13:33N 36°39' W 009°52'216 9.4
2015-May-19 14:29N 35°59' W 005°28'7 7.5
2015-May-19 13:33N 36°01' W 005°20'8 7.6
2015-May-19 12:33N 36°03' W 005°11'10211.3
2015-May-19 03:32N 36°16' W 003°06'1212.6
2015-May-19 02:33N 36°16' W 002°51'1312.5
2015-May-19 01:31N 36°17' W 002°34'1212.1
2015-May-19 00:31N 36°17' W 002°20'1212.3
2015-May-18 23:31N 36°17' W 002°04'1412.2
2015-May-18 22:20N 36°20' W 001°47'1012.3
2015-May-18 21:29N 36°23' W 001°34'2612.8
2015-May-18 19:29N 36°29' W 001°03'1213.1
2015-May-18 18:33N 36°32' W 000°49'1313.1
2015-May-18 17:33N 36°36' W 000°33'1413.1
2015-May-18 16:28N 36°39' W 000°16'1712.7
2015-May-18 15:08N 36°44' E 000°05'813.0
2015-May-18 14:33N 36°46' E 000°14'2512.5
2015-May-18 12:33N 36°52' E 000°44'1212.2
2015-May-18 11:33N 36°55' E 000°59'1312.1
2015-May-18 10:31N 36°59' E 001°14'1711.8
2015-May-18 09:05N 37°03' E 001°34'  
2015-May-16 04:27N 36°43' E 013°21'1011.1
2015-May-16 03:33N 36°39' E 013°32'1111.5
2015-May-16 02:33N 36°35' E 013°45'1111.4
2015-May-16 01:33N 36°31' E 013°58'1211.6
2015-May-16 00:33N 36°27' E 014°12'1212.1
2015-May-15 23:33N 36°24' E 014°27'1211.7
2015-May-15 22:33N 36°21' E 014°41'1211.8
2015-May-15 21:33N 36°18' E 014°55'1211.7
2015-May-15 20:33N 36°15' E 015°09'1312.1
2015-May-15 19:30N 36°12' E 015°24'1512.2
2015-May-15 18:16N 36°08' E 015°42'911.9
2015-May-15 17:32N 36°06' E 015°53'1111.6
2015-May-15 16:33N 36°03' E 016°06'1111.4
2015-May-15 15:33N 36°00' E 016°20'1211.5
2015-May-15 14:33N 35°57' E 016°34'1211.7
2015-May-15 13:32N 35°54' E 016°48'1212.0
2015-May-15 12:34N 35°51' E 017°02'1212.0
2015-May-15 11:33N 35°48' E 017°16'1211.9
2015-May-15 10:33N 35°45' E 017°30'1411.7
2015-May-15 09:21N 35°41' E 017°47'911.3
2015-May-15 08:33N 35°39' E 017°58'3411.3
2015-May-15 05:33N 35°30' E 018°38'1111.2
2015-May-15 04:33N 35°27' E 018°51'1211.5
2015-May-15 03:29N 35°24' E 019°06'7011.6
2015-May-14 21:28N 35°06' E 020°29'5811.5
2015-May-14 16:26N 34°51' E 021°37'  
Track history (hours):
 
Tides and Currents Weather Stations Pressure Air Temp Water Temp Dewpoint Dewpoint Depression Visibility Wind Speed Wind Dir Waves Ship Positions

Troviken

Last reported at 2015-May-21 12:30 UTC. Time now 2015-May-22 09:59 UTC.
Position N 39°50' W 010°25'.

Length 250 m; draft 13.8 m.

Type: Ship (hazmat cat A). MMSI: 311066200.

Date/timePositionNaut miles runAvg speedWind from/ knotsBaromVisibWave heightAir tempDewpointWater temp
2015-May-21 12:30N 39°50' W 010°25'28 9.4
2015-May-21 09:33N 39°22' W 010°25'9 9.4
2015-May-21 08:33N 39°13' W 010°25'9 9.1
2015-May-21 07:33N 39°03' W 010°25'12 8.7
2015-May-21 06:11N 38°52' W 010°25'8 8.7
2015-May-21 05:16N 38°44' W 010°25'6 8.6
2015-May-21 04:33N 38°37' W 010°25'65 8.0
2015-May-20 20:27N 37°33' W 010°14'7 7.5
2015-May-20 19:31N 37°26' W 010°11'10 8.0
2015-May-20 18:12N 37°16' W 010°07'9 8.4
2015-May-20 17:07N 37°08' W 010°04'8 8.5
2015-May-20 16:14N 37°01' W 010°01'23 8.5
2015-May-20 13:33N 36°39' W 009°52'216 9.4
2015-May-19 14:29N 35°59' W 005°28'7 7.5
2015-May-19 13:33N 36°01' W 005°20'8 7.6
2015-May-19 12:33N 36°03' W 005°11'10211.3
2015-May-19 03:32N 36°16' W 003°06'1212.6
2015-May-19 02:33N 36°16' W 002°51'1312.5
2015-May-19 01:31N 36°17' W 002°34'1212.1
2015-May-19 00:31N 36°17' W 002°20'1212.3
2015-May-18 23:31N 36°17' W 002°04'1412.2
2015-May-18 22:20N 36°20' W 001°47'1012.3
2015-May-18 21:29N 36°23' W 001°34'2612.8
2015-May-18 19:29N 36°29' W 001°03'1213.1
2015-May-18 18:33N 36°32' W 000°49'1313.1
2015-May-18 17:33N 36°36' W 000°33'1413.1
2015-May-18 16:28N 36°39' W 000°16'1712.7
2015-May-18 15:08N 36°44' E 000°05'813.0
2015-May-18 14:33N 36°46' E 000°14'2512.5
2015-May-18 12:33N 36°52' E 000°44'1212.2
2015-May-18 11:33N 36°55' E 000°59'1312.1
2015-May-18 10:31N 36°59' E 001°14'1711.8
2015-May-18 09:05N 37°03' E 001°34'  
2015-May-16 04:27N 36°43' E 013°21'1011.1
2015-May-16 03:33N 36°39' E 013°32'1111.5
2015-May-16 02:33N 36°35' E 013°45'1111.4
2015-May-16 01:33N 36°31' E 013°58'1211.6
2015-May-16 00:33N 36°27' E 014°12'1212.1
2015-May-15 23:33N 36°24' E 014°27'1211.7
2015-May-15 22:33N 36°21' E 014°41'1211.8
2015-May-15 21:33N 36°18' E 014°55'1211.7
2015-May-15 20:33N 36°15' E 015°09'1312.1
2015-May-15 19:30N 36°12' E 015°24'1512.2
2015-May-15 18:16N 36°08' E 015°42'911.9
2015-May-15 17:32N 36°06' E 015°53'1111.6
2015-May-15 16:33N 36°03' E 016°06'1111.4
2015-May-15 15:33N 36°00' E 016°20'1211.5
2015-May-15 14:33N 35°57' E 016°34'1211.7
2015-May-15 13:32N 35°54' E 016°48'1212.0
2015-May-15 12:34N 35°51' E 017°02'1212.0
2015-May-15 11:33N 35°48' E 017°16'1211.9
2015-May-15 10:33N 35°45' E 017°30'1411.7
2015-May-15 09:21N 35°41' E 017°47'911.3
2015-May-15 08:33N 35°39' E 017°58'3411.3
2015-May-15 05:33N 35°30' E 018°38'1111.2
2015-May-15 04:33N 35°27' E 018°51'1211.5
2015-May-15 03:29N 35°24' E 019°06'7011.6
2015-May-14 21:28N 35°06' E 020°29'5811.5
2015-May-14 16:26N 34°51' E 021°37'  

Dump ship's entire track history